sensor_id;sensor_type;location;lat;lon;timestamp;temperature;humidity
44643;DHT22;33930;-34.276;150.954;2022-09-03T00:00:24;12.00;99.90
44643;DHT22;33930;-34.276;150.954;2022-09-03T00:11:38;11.80;99.90
44643;DHT22;33930;-34.276;150.954;2022-09-03T00:14:19;11.80;99.90
44643;DHT22;33930;-34.276;150.954;2022-09-03T00:16:56;11.70;99.90
44643;DHT22;33930;-34.276;150.954;2022-09-03T00:19:33;11.70;99.90
44643;DHT22;33930;-34.276;150.954;2022-09-03T00:22:16;11.70;99.90
44643;DHT22;33930;-34.276;150.954;2022-09-03T00:24:45;11.60;99.90
44643;DHT22;33930;-34.276;150.954;2022-09-03T00:27:29;11.70;99.90
44643;DHT22;33930;-34.276;150.954;2022-09-03T00:30:01;11.80;99.90
44643;DHT22;33930;-34.276;150.954;2022-09-03T00:32:44;11.80;99.90
44643;DHT22;33930;-34.276;150.954;2022-09-03T00:35:30;11.80;99.90
44643;DHT22;33930;-34.276;150.954;2022-09-03T00:37:59;11.90;99.90
44643;DHT22;33930;-34.276;150.954;2022-09-03T00:43:29;11.90;99.90
44643;DHT22;33930;-34.276;150.954;2022-09-03T00:51:39;12.10;99.90
44643;DHT22;33930;-34.276;150.954;2022-09-03T01:00:12;12.20;99.90
44643;DHT22;33930;-34.276;150.954;2022-09-03T01:11:51;12.60;99.90
44643;DHT22;33930;-34.276;150.954;2022-09-03T01:20:03;12.70;99.90
44643;DHT22;33930;-34.276;150.954;2022-09-03T01:25:51;12.80;99.90
44643;DHT22;33930;-34.276;150.954;2022-09-03T01:31:28;12.90;99.90
44643;DHT22;33930;-34.276;150.954;2022-09-03T01:34:19;13.00;99.90
44643;DHT22;33930;-34.276;150.954;2022-09-03T01:36:51;13.00;99.90
44643;DHT22;33930;-34.276;150.954;2022-09-03T01:42:47;13.00;99.90
44643;DHT22;33930;-34.276;150.954;2022-09-03T01:45:27;13.00;99.90
44643;DHT22;33930;-34.276;150.954;2022-09-03T01:48:41;12.90;99.90
44643;DHT22;33930;-34.276;150.954;2022-09-03T01:50:53;13.00;99.90
44643;DHT22;33930;-34.276;150.954;2022-09-03T01:56:52;12.90;99.90
44643;DHT22;33930;-34.276;150.954;2022-09-03T02:02:22;12.70;99.90
44643;DHT22;33930;-34.276;150.954;2022-09-03T02:07:40;12.90;99.90
44643;DHT22;33930;-34.276;150.954;2022-09-03T02:10:16;13.00;99.90
44643;DHT22;33930;-34.276;150.954;2022-09-03T02:12:48;13.20;99.90
44643;DHT22;33930;-34.276;150.954;2022-09-03T02:15:20;13.20;99.90
44643;DHT22;33930;-34.276;150.954;2022-09-03T02:17:49;13.30;99.90
44643;DHT22;33930;-34.276;150.954;2022-09-03T02:20:22;13.30;99.90
44643;DHT22;33930;-34.276;150.954;2022-09-03T02:22:50;13.20;99.90
44643;DHT22;33930;-34.276;150.954;2022-09-03T02:25:22;13.20;99.90
44643;DHT22;33930;-34.276;150.954;2022-09-03T02:27:50;13.20;99.90
44643;DHT22;33930;-34.276;150.954;2022-09-03T02:30:18;13.20;99.90
44643;DHT22;33930;-34.276;150.954;2022-09-03T02:32:46;13.30;99.90
44643;DHT22;33930;-34.276;150.954;2022-09-03T02:35:14;13.30;99.90
44643;DHT22;33930;-34.276;150.954;2022-09-03T02:37:41;13.20;99.90
44643;DHT22;33930;-34.276;150.954;2022-09-03T02:40:08;13.30;99.90
44643;DHT22;33930;-34.276;150.954;2022-09-03T02:42:40;13.40;99.90
44643;DHT22;33930;-34.276;150.954;2022-09-03T02:45:34;13.40;99.90
44643;DHT22;33930;-34.276;150.954;2022-09-03T02:48:04;13.50;99.90
44643;DHT22;33930;-34.276;150.954;2022-09-03T02:50:32;13.50;99.90
44643;DHT22;33930;-34.276;150.954;2022-09-03T02:53:05;13.50;99.90
44643;DHT22;33930;-34.276;150.954;2022-09-03T02:55:33;13.50;99.90
44643;DHT22;33930;-34.276;150.954;2022-09-03T02:58:00;13.50;99.90
44643;DHT22;33930;-34.276;150.954;2022-09-03T03:00:27;13.50;99.90
44643;DHT22;33930;-34.276;150.954;2022-09-03T03:02:55;13.50;99.90
44643;DHT22;33930;-34.276;150.954;2022-09-03T03:05:29;13.60;99.90
44643;DHT22;33930;-34.276;150.954;2022-09-03T03:07:59;13.60;99.90
44643;DHT22;33930;-34.276;150.954;2022-09-03T03:10:26;13.60;99.90
44643;DHT22;33930;-34.276;150.954;2022-09-03T03:12:54;13.70;99.90
44643;DHT22;33930;-34.276;150.954;2022-09-03T03:15:21;13.70;99.90
44643;DHT22;33930;-34.276;150.954;2022-09-03T03:17:48;13.80;99.90
44643;DHT22;33930;-34.276;150.954;2022-09-03T03:20:15;13.80;99.90
44643;DHT22;33930;-34.276;150.954;2022-09-03T03:22:43;14.00;99.90
44643;DHT22;33930;-34.276;150.954;2022-09-03T03:25:10;13.90;99.90
44643;DHT22;33930;-34.276;150.954;2022-09-03T03:27:38;13.90;99.90
44643;DHT22;33930;-34.276;150.954;2022-09-03T03:30:08;13.80;99.90
44643;DHT22;33930;-34.276;150.954;2022-09-03T03:32:36;13.80;99.90
44643;DHT22;33930;-34.276;150.954;2022-09-03T03:35:04;13.90;99.90
44643;DHT22;33930;-34.276;150.954;2022-09-03T03:37:33;14.00;99.90
44643;DHT22;33930;-34.276;150.954;2022-09-03T03:40:01;14.00;99.90
44643;DHT22;33930;-34.276;150.954;2022-09-03T03:42:31;13.90;99.90
44643;DHT22;33930;-34.276;150.954;2022-09-03T03:44:58;13.90;99.90
44643;DHT22;33930;-34.276;150.954;2022-09-03T03:47:28;14.00;99.90
44643;DHT22;33930;-34.276;150.954;2022-09-03T03:49:58;14.10;99.90
44643;DHT22;33930;-34.276;150.954;2022-09-03T03:52:27;14.10;99.90
44643;DHT22;33930;-34.276;150.954;2022-09-03T03:54:54;14.20;99.90
44643;DHT22;33930;-34.276;150.954;2022-09-03T03:57:23;14.30;99.90
44643;DHT22;33930;-34.276;150.954;2022-09-03T03:59:50;14.30;99.90
44643;DHT22;33930;-34.276;150.954;2022-09-03T04:02:18;14.40;99.90
44643;DHT22;33930;-34.276;150.954;2022-09-03T04:04:45;14.50;99.90
44643;DHT22;33930;-34.276;150.954;2022-09-03T04:07:13;14.60;99.90
44643;DHT22;33930;-34.276;150.954;2022-09-03T04:09:40;14.70;99.90
44643;DHT22;33930;-34.276;150.954;2022-09-03T04:12:07;14.90;99.90
44643;DHT22;33930;-34.276;150.954;2022-09-03T04:14:35;14.90;99.90
44643;DHT22;33930;-34.276;150.954;2022-09-03T04:17:02;15.00;99.90
44643;DHT22;33930;-34.276;150.954;2022-09-03T04:19:30;15.10;99.90
44643;DHT22;33930;-34.276;150.954;2022-09-03T04:21:57;15.20;99.90
44643;DHT22;33930;-34.276;150.954;2022-09-03T04:24:25;15.10;99.90
44643;DHT22;33930;-34.276;150.954;2022-09-03T04:26:53;15.00;99.90
44643;DHT22;33930;-34.276;150.954;2022-09-03T04:29:20;15.10;99.90
44643;DHT22;33930;-34.276;150.954;2022-09-03T04:31:47;15.10;99.90
44643;DHT22;33930;-34.276;150.954;2022-09-03T04:34:33;15.10;99.90
44643;DHT22;33930;-34.276;150.954;2022-09-03T04:37:00;15.00;99.90
44643;DHT22;33930;-34.276;150.954;2022-09-03T04:39:27;14.90;99.90
44643;DHT22;33930;-34.276;150.954;2022-09-03T04:41:54;14.80;99.90
44643;DHT22;33930;-34.276;150.954;2022-09-03T04:44:22;14.70;99.90
44643;DHT22;33930;-34.276;150.954;2022-09-03T04:46:49;14.50;99.90
44643;DHT22;33930;-34.276;150.954;2022-09-03T04:49:16;14.50;99.90
44643;DHT22;33930;-34.276;150.954;2022-09-03T04:51:44;14.30;99.90
44643;DHT22;33930;-34.276;150.954;2022-09-03T04:54:11;14.20;99.90
44643;DHT22;33930;-34.276;150.954;2022-09-03T04:56:38;14.00;99.90
44643;DHT22;33930;-34.276;150.954;2022-09-03T04:59:08;13.90;99.90
44643;DHT22;33930;-34.276;150.954;2022-09-03T05:01:37;13.80;99.90
44643;DHT22;33930;-34.276;150.954;2022-09-03T05:04:07;13.70;99.90
44643;DHT22;33930;-34.276;150.954;2022-09-03T05:06:36;13.50;99.90
44643;DHT22;33930;-34.276;150.954;2022-09-03T05:09:04;13.50;99.90
44643;DHT22;33930;-34.276;150.954;2022-09-03T05:11:32;13.30;99.90
44643;DHT22;33930;-34.276;150.954;2022-09-03T05:13:59;13.10;99.90
44643;DHT22;33930;-34.276;150.954;2022-09-03T05:16:27;13.10;99.90
44643;DHT22;33930;-34.276;150.954;2022-09-03T05:18:57;13.10;99.90
44643;DHT22;33930;-34.276;150.954;2022-09-03T05:21:26;13.10;99.90
44643;DHT22;33930;-34.276;150.954;2022-09-03T05:23:54;13.10;99.90
44643;DHT22;33930;-34.276;150.954;2022-09-03T05:26:31;13.20;99.90
44643;DHT22;33930;-34.276;150.954;2022-09-03T05:29:01;13.30;99.90
44643;DHT22;33930;-34.276;150.954;2022-09-03T05:31:29;13.30;99.90
44643;DHT22;33930;-34.276;150.954;2022-09-03T05:33:59;13.30;99.90
44643;DHT22;33930;-34.276;150.954;2022-09-03T05:36:29;13.20;99.90
44643;DHT22;33930;-34.276;150.954;2022-09-03T05:38:58;13.20;99.90
44643;DHT22;33930;-34.276;150.954;2022-09-03T05:41:26;13.20;99.90
44643;DHT22;33930;-34.276;150.954;2022-09-03T05:43:55;13.20;99.90
44643;DHT22;33930;-34.276;150.954;2022-09-03T05:46:28;13.10;99.90
44643;DHT22;33930;-34.276;150.954;2022-09-03T05:49:00;13.10;99.90
44643;DHT22;33930;-34.276;150.954;2022-09-03T05:51:28;13.10;99.90
44643;DHT22;33930;-34.276;150.954;2022-09-03T05:53:56;13.10;99.90
44643;DHT22;33930;-34.276;150.954;2022-09-03T05:56:24;13.10;99.90
44643;DHT22;33930;-34.276;150.954;2022-09-03T05:58:55;13.00;99.90
44643;DHT22;33930;-34.276;150.954;2022-09-03T06:01:27;13.00;99.90
44643;DHT22;33930;-34.276;150.954;2022-09-03T06:03:58;12.90;99.90
44643;DHT22;33930;-34.276;150.954;2022-09-03T06:06:26;13.00;99.90
44643;DHT22;33930;-34.276;150.954;2022-09-03T06:09:08;12.90;99.90
44643;DHT22;33930;-34.276;150.954;2022-09-03T06:11:37;12.80;99.90
44643;DHT22;33930;-34.276;150.954;2022-09-03T06:14:06;12.80;99.90
44643;DHT22;33930;-34.276;150.954;2022-09-03T06:16:36;12.80;99.90
44643;DHT22;33930;-34.276;150.954;2022-09-03T06:19:05;12.70;99.90
44643;DHT22;33930;-34.276;150.954;2022-09-03T06:21:35;12.70;99.90
44643;DHT22;33930;-34.276;150.954;2022-09-03T06:24:03;12.70;99.90
44643;DHT22;33930;-34.276;150.954;2022-09-03T06:26:30;12.50;99.90
44643;DHT22;33930;-34.276;150.954;2022-09-03T06:28:57;12.50;99.90
44643;DHT22;33930;-34.276;150.954;2022-09-03T06:31:25;12.50;99.90
44643;DHT22;33930;-34.276;150.954;2022-09-03T06:33:53;12.50;99.90
44643;DHT22;33930;-34.276;150.954;2022-09-03T06:36:22;12.50;99.90
44643;DHT22;33930;-34.276;150.954;2022-09-03T06:38:55;12.50;99.90
44643;DHT22;33930;-34.276;150.954;2022-09-03T06:41:28;12.40;99.90
44643;DHT22;33930;-34.276;150.954;2022-09-03T06:43:58;12.40;99.90
44643;DHT22;33930;-34.276;150.954;2022-09-03T06:46:30;12.40;99.90
44643;DHT22;33930;-34.276;150.954;2022-09-03T06:48:58;12.40;99.90
44643;DHT22;33930;-34.276;150.954;2022-09-03T06:51:27;12.40;99.90
44643;DHT22;33930;-34.276;150.954;2022-09-03T06:54:00;12.40;99.90
44643;DHT22;33930;-34.276;150.954;2022-09-03T06:56:27;12.40;99.90
44643;DHT22;33930;-34.276;150.954;2022-09-03T06:58:57;12.30;99.90
44643;DHT22;33930;-34.276;150.954;2022-09-03T07:01:29;12.30;99.90
44643;DHT22;33930;-34.276;150.954;2022-09-03T07:04:02;12.30;99.90
44643;DHT22;33930;-34.276;150.954;2022-09-03T07:06:31;12.30;99.90
44643;DHT22;33930;-34.276;150.954;2022-09-03T07:08:59;12.40;99.90
44643;DHT22;33930;-34.276;150.954;2022-09-03T07:11:29;12.40;99.90
44643;DHT22;33930;-34.276;150.954;2022-09-03T07:13:59;12.30;99.90
44643;DHT22;33930;-34.276;150.954;2022-09-03T07:16:27;12.30;99.90
44643;DHT22;33930;-34.276;150.954;2022-09-03T07:18:55;12.30;99.90
44643;DHT22;33930;-34.276;150.954;2022-09-03T07:21:24;12.30;99.90
44643;DHT22;33930;-34.276;150.954;2022-09-03T07:23:53;12.20;99.90
44643;DHT22;33930;-34.276;150.954;2022-09-03T07:26:26;12.30;99.90
44643;DHT22;33930;-34.276;150.954;2022-09-03T07:28:54;12.20;99.90
44643;DHT22;33930;-34.276;150.954;2022-09-03T07:31:24;12.30;99.90
44643;DHT22;33930;-34.276;150.954;2022-09-03T07:33:59;12.30;99.90
44643;DHT22;33930;-34.276;150.954;2022-09-03T07:36:28;12.30;99.90
44643;DHT22;33930;-34.276;150.954;2022-09-03T07:38:57;12.30;99.90
44643;DHT22;33930;-34.276;150.954;2022-09-03T07:41:26;12.20;99.90
44643;DHT22;33930;-34.276;150.954;2022-09-03T07:43:54;12.30;99.90
44643;DHT22;33930;-34.276;150.954;2022-09-03T07:46:23;12.20;99.90
44643;DHT22;33930;-34.276;150.954;2022-09-03T07:48:53;12.30;99.90
44643;DHT22;33930;-34.276;150.954;2022-09-03T07:51:22;12.30;99.90
44643;DHT22;33930;-34.276;150.954;2022-09-03T07:53:53;12.40;99.90
44643;DHT22;33930;-34.276;150.954;2022-09-03T07:56:22;12.40;99.90
44643;DHT22;33930;-34.276;150.954;2022-09-03T07:58:49;12.40;99.90
44643;DHT22;33930;-34.276;150.954;2022-09-03T08:01:20;12.30;99.90
44643;DHT22;33930;-34.276;150.954;2022-09-03T08:03:52;12.30;99.90
44643;DHT22;33930;-34.276;150.954;2022-09-03T08:06:22;12.30;99.90
44643;DHT22;33930;-34.276;150.954;2022-09-03T08:08:55;12.20;99.90
44643;DHT22;33930;-34.276;150.954;2022-09-03T08:11:27;12.30;99.90
44643;DHT22;33930;-34.276;150.954;2022-09-03T08:13:58;12.40;99.90
44643;DHT22;33930;-34.276;150.954;2022-09-03T08:16:31;12.50;99.90
44643;DHT22;33930;-34.276;150.954;2022-09-03T08:18:59;12.50;99.90
44643;DHT22;33930;-34.276;150.954;2022-09-03T08:21:26;12.50;99.90
44643;DHT22;33930;-34.276;150.954;2022-09-03T08:23:55;12.40;99.90
44643;DHT22;33930;-34.276;150.954;2022-09-03T08:26:28;12.30;99.90
44643;DHT22;33930;-34.276;150.954;2022-09-03T08:28:57;12.30;99.90
44643;DHT22;33930;-34.276;150.954;2022-09-03T08:31:24;12.20;99.90
44643;DHT22;33930;-34.276;150.954;2022-09-03T08:33:55;12.20;99.90
44643;DHT22;33930;-34.276;150.954;2022-09-03T08:36:26;12.20;99.90
44643;DHT22;33930;-34.276;150.954;2022-09-03T08:38:59;12.10;99.90
44643;DHT22;33930;-34.276;150.954;2022-09-03T08:41:55;12.20;99.90
44643;DHT22;33930;-34.276;150.954;2022-09-03T08:55:35;12.10;99.90
44643;DHT22;33930;-34.276;150.954;2022-09-03T08:58:16;12.00;99.90
44643;DHT22;33930;-34.276;150.954;2022-09-03T09:22:42;12.10;99.90
44643;DHT22;33930;-34.276;150.954;2022-09-03T09:25:18;12.10;99.90
44643;DHT22;33930;-34.276;150.954;2022-09-03T09:28:19;12.10;99.90
44643;DHT22;33930;-34.276;150.954;2022-09-03T09:30:49;12.10;99.90
44643;DHT22;33930;-34.276;150.954;2022-09-03T09:33:18;12.00;99.90
44643;DHT22;33930;-34.276;150.954;2022-09-03T09:35:47;12.10;99.90
44643;DHT22;33930;-34.276;150.954;2022-09-03T09:38:14;12.00;99.90
44643;DHT22;33930;-34.276;150.954;2022-09-03T09:40:44;12.00;99.90
44643;DHT22;33930;-34.276;150.954;2022-09-03T09:43:19;12.10;99.90
44643;DHT22;33930;-34.276;150.954;2022-09-03T09:45:52;12.00;99.90
44643;DHT22;33930;-34.276;150.954;2022-09-03T09:48:29;12.10;99.90
44643;DHT22;33930;-34.276;150.954;2022-09-03T09:51:12;12.00;99.90
44643;DHT22;33930;-34.276;150.954;2022-09-03T09:53:40;12.00;99.90
44643;DHT22;33930;-34.276;150.954;2022-09-03T09:56:22;12.00;99.90
44643;DHT22;33930;-34.276;150.954;2022-09-03T09:59:00;12.00;99.90
44643;DHT22;33930;-34.276;150.954;2022-09-03T10:01:28;12.00;99.90
44643;DHT22;33930;-34.276;150.954;2022-09-03T10:04:07;12.00;99.90
44643;DHT22;33930;-34.276;150.954;2022-09-03T10:06:34;12.00;99.90
44643;DHT22;33930;-34.276;150.954;2022-09-03T10:09:23;12.00;99.90
44643;DHT22;33930;-34.276;150.954;2022-09-03T10:12:34;12.00;99.90
44643;DHT22;33930;-34.276;150.954;2022-09-03T10:23:07;12.10;99.90
44643;DHT22;33930;-34.276;150.954;2022-09-03T10:25:58;12.10;99.90
44643;DHT22;33930;-34.276;150.954;2022-09-03T10:28:30;12.20;99.90
44643;DHT22;33930;-34.276;150.954;2022-09-03T10:36:35;12.20;99.90
44643;DHT22;33930;-34.276;150.954;2022-09-03T10:45:17;12.10;99.90
44643;DHT22;33930;-34.276;150.954;2022-09-03T10:56:10;12.20;99.90
44643;DHT22;33930;-34.276;150.954;2022-09-03T10:59:09;12.20;99.90
44643;DHT22;33930;-34.276;150.954;2022-09-03T11:01:46;12.20;99.90
44643;DHT22;33930;-34.276;150.954;2022-09-03T11:07:02;12.20;99.90
44643;DHT22;33930;-34.276;150.954;2022-09-03T11:09:40;12.20;99.90
44643;DHT22;33930;-34.276;150.954;2022-09-03T11:12:16;12.10;99.90
44643;DHT22;33930;-34.276;150.954;2022-09-03T11:17:37;12.20;99.90
44643;DHT22;33930;-34.276;150.954;2022-09-03T11:22:44;12.20;99.90
44643;DHT22;33930;-34.276;150.954;2022-09-03T11:25:15;12.20;99.90
44643;DHT22;33930;-34.276;150.954;2022-09-03T11:27:48;12.30;99.90
44643;DHT22;33930;-34.276;150.954;2022-09-03T11:33:09;12.30;99.90
44643;DHT22;33930;-34.276;150.954;2022-09-03T11:35:39;12.20;99.90
44643;DHT22;33930;-34.276;150.954;2022-09-03T11:41:44;12.30;99.90
44643;DHT22;33930;-34.276;150.954;2022-09-03T11:43:46;12.30;99.90
44643;DHT22;33930;-34.276;150.954;2022-09-03T11:46:28;12.30;99.90
44643;DHT22;33930;-34.276;150.954;2022-09-03T11:49:08;12.30;99.90
44643;DHT22;33930;-34.276;150.954;2022-09-03T11:51:37;12.30;99.90
44643;DHT22;33930;-34.276;150.954;2022-09-03T11:54:24;12.30;99.90
44643;DHT22;33930;-34.276;150.954;2022-09-03T11:57:08;12.30;99.90
44643;DHT22;33930;-34.276;150.954;2022-09-03T11:59:38;12.20;99.90
44643;DHT22;33930;-34.276;150.954;2022-09-03T12:11:48;12.10;99.90
44643;DHT22;33930;-34.276;150.954;2022-09-03T12:19:51;12.10;99.90
44643;DHT22;33930;-34.276;150.954;2022-09-03T12:22:21;12.10;99.90
44643;DHT22;33930;-34.276;150.954;2022-09-03T12:24:49;12.10;99.90
44643;DHT22;33930;-34.276;150.954;2022-09-03T12:27:26;12.10;99.90
44643;DHT22;33930;-34.276;150.954;2022-09-03T12:30:04;12.10;99.90
44643;DHT22;33930;-34.276;150.954;2022-09-03T12:32:40;12.00;99.90
44643;DHT22;33930;-34.276;150.954;2022-09-03T12:35:15;12.00;99.90
44643;DHT22;33930;-34.276;150.954;2022-09-03T12:37:44;12.10;99.90
44643;DHT22;33930;-34.276;150.954;2022-09-03T12:40:26;12.10;99.90
44643;DHT22;33930;-34.276;150.954;2022-09-03T12:42:55;12.10;99.90
44643;DHT22;33930;-34.276;150.954;2022-09-03T12:45:26;12.10;99.90
44643;DHT22;33930;-34.276;150.954;2022-09-03T12:47:53;12.00;99.90
44643;DHT22;33930;-34.276;150.954;2022-09-03T12:50:22;12.10;99.90
44643;DHT22;33930;-34.276;150.954;2022-09-03T12:53:01;12.00;99.90
44643;DHT22;33930;-34.276;150.954;2022-09-03T12:55:35;12.10;99.90
44643;DHT22;33930;-34.276;150.954;2022-09-03T12:58:19;12.00;99.90
44643;DHT22;33930;-34.276;150.954;2022-09-03T13:01:14;12.00;99.90
44643;DHT22;33930;-34.276;150.954;2022-09-03T13:03:52;12.00;99.90
44643;DHT22;33930;-34.276;150.954;2022-09-03T13:06:27;12.00;99.90
44643;DHT22;33930;-34.276;150.954;2022-09-03T13:09:01;12.10;99.90
44643;DHT22;33930;-34.276;150.954;2022-09-03T13:11:33;12.10;99.90
44643;DHT22;33930;-34.276;150.954;2022-09-03T13:22:36;12.00;99.90
44643;DHT22;33930;-34.276;150.954;2022-09-03T13:25:25;12.00;99.90
44643;DHT22;33930;-34.276;150.954;2022-09-03T13:28:29;12.00;99.90
44643;DHT22;33930;-34.276;150.954;2022-09-03T13:34:02;11.90;99.90
44643;DHT22;33930;-34.276;150.954;2022-09-03T13:36:50;11.80;99.90
44643;DHT22;33930;-34.276;150.954;2022-09-03T13:39:27;11.90;99.90
44643;DHT22;33930;-34.276;150.954;2022-09-03T13:42:15;11.90;99.90
44643;DHT22;33930;-34.276;150.954;2022-09-03T13:50:30;11.90;99.90
44643;DHT22;33930;-34.276;150.954;2022-09-03T13:55:55;11.80;99.90
44643;DHT22;33930;-34.276;150.954;2022-09-03T14:07:26;11.80;99.90
44643;DHT22;33930;-34.276;150.954;2022-09-03T14:10:18;11.80;99.90
44643;DHT22;33930;-34.276;150.954;2022-09-03T14:15:35;11.80;99.90
44643;DHT22;33930;-34.276;150.954;2022-09-03T14:18:14;11.80;99.90
44643;DHT22;33930;-34.276;150.954;2022-09-03T14:20:56;11.80;99.90
44643;DHT22;33930;-34.276;150.954;2022-09-03T14:25:59;11.80;99.90
44643;DHT22;33930;-34.276;150.954;2022-09-03T14:28:30;11.80;99.90
44643;DHT22;33930;-34.276;150.954;2022-09-03T14:37:02;11.80;99.90
44643;DHT22;33930;-34.276;150.954;2022-09-03T14:40:03;11.80;99.90
44643;DHT22;33930;-34.276;150.954;2022-09-03T14:42:49;11.80;99.90
44643;DHT22;33930;-34.276;150.954;2022-09-03T14:45:30;11.80;99.90
44643;DHT22;33930;-34.276;150.954;2022-09-03T14:48:41;11.70;99.90
44643;DHT22;33930;-34.276;150.954;2022-09-03T14:54:55;11.80;99.90
44643;DHT22;33930;-34.276;150.954;2022-09-03T15:00:08;11.90;99.90
44643;DHT22;33930;-34.276;150.954;2022-09-03T15:11:32;11.90;99.90
44643;DHT22;33930;-34.276;150.954;2022-09-03T15:14:23;11.90;99.90
44643;DHT22;33930;-34.276;150.954;2022-09-03T15:16:55;11.90;99.90
44643;DHT22;33930;-34.276;150.954;2022-09-03T15:25:10;11.80;99.90
44643;DHT22;33930;-34.276;150.954;2022-09-03T15:30:23;11.90;99.90
44643;DHT22;33930;-34.276;150.954;2022-09-03T15:36:33;11.90;99.90
44643;DHT22;33930;-34.276;150.954;2022-09-03T15:39:05;11.90;99.90
44643;DHT22;33930;-34.276;150.954;2022-09-03T15:41:45;11.90;99.90
44643;DHT22;33930;-34.276;150.954;2022-09-03T15:44:16;12.00;99.90
44643;DHT22;33930;-34.276;150.954;2022-09-03T15:46:49;12.00;99.90
44643;DHT22;33930;-34.276;150.954;2022-09-03T15:52:01;12.00;99.90
44643;DHT22;33930;-34.276;150.954;2022-09-03T15:54:45;12.00;99.90
44643;DHT22;33930;-34.276;150.954;2022-09-03T15:57:29;11.90;99.90
44643;DHT22;33930;-34.276;150.954;2022-09-03T16:00:22;12.10;99.90
44643;DHT22;33930;-34.276;150.954;2022-09-03T16:03:08;12.10;99.90
44643;DHT22;33930;-34.276;150.954;2022-09-03T16:05:56;12.10;99.90
44643;DHT22;33930;-34.276;150.954;2022-09-03T16:08:51;12.10;99.90
44643;DHT22;33930;-34.276;150.954;2022-09-03T16:16:40;12.10;99.90
44643;DHT22;33930;-34.276;150.954;2022-09-03T16:21:48;12.20;99.90
44643;DHT22;33930;-34.276;150.954;2022-09-03T16:24:21;12.20;99.90
44643;DHT22;33930;-34.276;150.954;2022-09-03T16:27:35;12.20;99.90
44643;DHT22;33930;-34.276;150.954;2022-09-03T16:29:37;12.30;99.90
44643;DHT22;33930;-34.276;150.954;2022-09-03T16:32:18;12.40;99.90
44643;DHT22;33930;-34.276;150.954;2022-09-03T16:35:00;12.60;99.90
44643;DHT22;33930;-34.276;150.954;2022-09-03T16:40:22;12.60;99.90
44643;DHT22;33930;-34.276;150.954;2022-09-03T16:43:29;12.70;99.90
44643;DHT22;33930;-34.276;150.954;2022-09-03T16:51:38;12.70;99.90
44643;DHT22;33930;-34.276;150.954;2022-09-03T16:57:18;12.90;99.90
44643;DHT22;33930;-34.276;150.954;2022-09-03T17:00:00;12.90;99.90
44643;DHT22;33930;-34.276;150.954;2022-09-03T17:02:56;12.70;99.90
44643;DHT22;33930;-34.276;150.954;2022-09-03T17:08:26;12.60;99.90
44643;DHT22;33930;-34.276;150.954;2022-09-03T17:23:08;12.50;99.90
44643;DHT22;33930;-34.276;150.954;2022-09-03T17:25:40;12.60;99.90
44643;DHT22;33930;-34.276;150.954;2022-09-03T17:28:52;12.60;99.90
44643;DHT22;33930;-34.276;150.954;2022-09-03T17:31:35;12.60;99.90
44643;DHT22;33930;-34.276;150.954;2022-09-03T17:34:49;12.70;99.90
44643;DHT22;33930;-34.276;150.954;2022-09-03T17:37:30;12.70;99.90
44643;DHT22;33930;-34.276;150.954;2022-09-03T17:43:11;12.60;99.90
44643;DHT22;33930;-34.276;150.954;2022-09-03T17:51:03;12.50;99.90
44643;DHT22;33930;-34.276;150.954;2022-09-03T17:53:39;12.50;99.90
44643;DHT22;33930;-34.276;150.954;2022-09-03T18:02:36;12.70;99.90
44643;DHT22;33930;-34.276;150.954;2022-09-03T18:05:02;12.70;99.90
44643;DHT22;33930;-34.276;150.954;2022-09-03T18:10:22;12.90;99.90
44643;DHT22;33930;-34.276;150.954;2022-09-03T18:18:49;13.00;99.90
44643;DHT22;33930;-34.276;150.954;2022-09-03T18:21:22;13.00;99.90
44643;DHT22;33930;-34.276;150.954;2022-09-03T18:24:31;12.90;99.90
44643;DHT22;33930;-34.276;150.954;2022-09-03T18:27:32;12.90;99.90
44643;DHT22;33930;-34.276;150.954;2022-09-03T18:30:20;12.80;99.90
44643;DHT22;33930;-34.276;150.954;2022-09-03T18:33:05;12.60;99.90
44643;DHT22;33930;-34.276;150.954;2022-09-03T18:35:50;12.60;99.90
44643;DHT22;33930;-34.276;150.954;2022-09-03T18:38:37;12.50;99.90
44643;DHT22;33930;-34.276;150.954;2022-09-03T18:44:22;12.40;99.90
44643;DHT22;33930;-34.276;150.954;2022-09-03T19:08:42;12.00;99.90
44643;DHT22;33930;-34.276;150.954;2022-09-03T19:11:49;12.00;99.90
44643;DHT22;33930;-34.276;150.954;2022-09-03T19:14:41;12.00;99.90
44643;DHT22;33930;-34.276;150.954;2022-09-03T19:21:28;12.00;99.90
44643;DHT22;33930;-34.276;150.954;2022-09-03T19:24:20;11.90;99.90
44643;DHT22;33930;-34.276;150.954;2022-09-03T19:30:10;11.80;99.90
44643;DHT22;33930;-34.276;150.954;2022-09-03T19:36:26;11.90;99.90
44643;DHT22;33930;-34.276;150.954;2022-09-03T19:51:39;11.70;99.90
44643;DHT22;33930;-34.276;150.954;2022-09-03T19:54:27;11.70;99.90
44643;DHT22;33930;-34.276;150.954;2022-09-03T19:57:15;11.80;99.90
44643;DHT22;33930;-34.276;150.954;2022-09-03T20:00:04;11.80;99.90
44643;DHT22;33930;-34.276;150.954;2022-09-03T20:02:49;11.80;99.90
44643;DHT22;33930;-34.276;150.954;2022-09-03T20:05:36;11.80;99.90
44643;DHT22;33930;-34.276;150.954;2022-09-03T20:08:23;11.80;99.90
44643;DHT22;33930;-34.276;150.954;2022-09-03T20:11:18;11.80;99.90
44643;DHT22;33930;-34.276;150.954;2022-09-03T20:13:45;11.80;99.90
44643;DHT22;33930;-34.276;150.954;2022-09-03T20:16:35;11.70;99.90
44643;DHT22;33930;-34.276;150.954;2022-09-03T20:22:07;11.70;99.90
44643;DHT22;33930;-34.276;150.954;2022-09-03T20:33:40;11.60;99.90
44643;DHT22;33930;-34.276;150.954;2022-09-03T20:36:43;11.60;99.90
44643;DHT22;33930;-34.276;150.954;2022-09-03T20:39:44;11.70;99.90
44643;DHT22;33930;-34.276;150.954;2022-09-03T20:42:23;11.70;99.90
44643;DHT22;33930;-34.276;150.954;2022-09-03T20:45:23;11.80;99.90
44643;DHT22;33930;-34.276;150.954;2022-09-03T20:50:35;11.70;99.90
44643;DHT22;33930;-34.276;150.954;2022-09-03T20:58:48;11.90;99.90
44643;DHT22;33930;-34.276;150.954;2022-09-03T21:01:26;11.90;99.90
44643;DHT22;33930;-34.276;150.954;2022-09-03T21:07:07;11.90;99.90
44643;DHT22;33930;-34.276;150.954;2022-09-03T21:12:30;11.80;99.90
44643;DHT22;33930;-34.276;150.954;2022-09-03T21:15:09;11.80;99.90
44643;DHT22;33930;-34.276;150.954;2022-09-03T21:17:59;11.90;99.90
44643;DHT22;33930;-34.276;150.954;2022-09-03T21:20:55;11.90;99.90
44643;DHT22;33930;-34.276;150.954;2022-09-03T21:26:57;11.80;99.90